The request has been executed successfully.

The input positions has been matched with the following result:

Complete Path
Country code Length Speed Limit Forward Routing Segment Index Tile Id
52 72 30 61 1110201442
52 26 30 57 1110201442
52 10 30 56 1110201442
52 10 30 47 1110201442
52 22 30 51 1110201442
52 37 30 55 1110201442
52 42 30 59 1110201442
52 12 30 60 1110201442
52 11 30 55 1110201441
52 72 30 68 1110201441
52 13 30 72 1110201441
52 36 30 75 1110201441
52 69 30 85 1110201441
52 30 30 93 1110201441
52 22 30 97 1110201441
52 66 30 100 1110201441
52 12 30 104 1110201441
52 20 30 106 1110201441
52 15 30 110 1110201441
52 74 30 116 1110201441
52 8 30 119 1110201441
52 62 30 125 1110201441
52 82 30 131 1110201441

Matched Locations
Input Id Latitude Longitude Heading Stable Path
1 49.6260524268161 6.114760039920577 247.75098 true Length= 72 SpeedLimitForward = 30 TileId=1110201442 RtgSegIdx=61
10 49.62589987406719 6.114175592257604 249.44395 true Length= 72 SpeedLimitForward = 30 TileId=1110201442 RtgSegIdx=61
Length= 26 SpeedLimitForward = 30 TileId=1110201442 RtgSegIdx=57
20 49.62570130269805 6.113848348302166 170.53767 true Length= 26 SpeedLimitForward = 30 TileId=1110201442 RtgSegIdx=57
Length= 10 SpeedLimitForward = 30 TileId=1110201442 RtgSegIdx=56
Length= 10 SpeedLimitForward = 30 TileId=1110201442 RtgSegIdx=47
Length= 22 SpeedLimitForward = 30 TileId=1110201442 RtgSegIdx=51
Length= 37 SpeedLimitForward = 30 TileId=1110201442 RtgSegIdx=55
30 49.625291633409375 6.1139915450036995 153.43495 true Length= 37 SpeedLimitForward = 30 TileId=1110201442 RtgSegIdx=55
Length= 42 SpeedLimitForward = 30 TileId=1110201442 RtgSegIdx=59
40 49.62486073985232 6.1143673874261815 149.03624 true Length= 42 SpeedLimitForward = 30 TileId=1110201442 RtgSegIdx=59
Length= 12 SpeedLimitForward = 30 TileId=1110201442 RtgSegIdx=60
Length= 11 SpeedLimitForward = 30 TileId=1110201441 RtgSegIdx=55
Length= 72 SpeedLimitForward = 30 TileId=1110201441 RtgSegIdx=68
50 49.624508483948716 6.114693655161616 149.03624 true Length= 72 SpeedLimitForward = 30 TileId=1110201441 RtgSegIdx=68
60 49.624126476064816 6.115056127869514 149.03624 true Length= 72 SpeedLimitForward = 30 TileId=1110201441 RtgSegIdx=68
Length= 13 SpeedLimitForward = 30 TileId=1110201441 RtgSegIdx=72
Length= 36 SpeedLimitForward = 30 TileId=1110201441 RtgSegIdx=75
80 49.62340372989817 6.1157082384965555 149.93141 true Length= 36 SpeedLimitForward = 30 TileId=1110201441 RtgSegIdx=75
Length= 69 SpeedLimitForward = 30 TileId=1110201441 RtgSegIdx=85
110 49.62264568946824 6.116648857960982 142.59465 true Length= 69 SpeedLimitForward = 30 TileId=1110201441 RtgSegIdx=85
Length= 30 SpeedLimitForward = 30 TileId=1110201441 RtgSegIdx=93
Length= 22 SpeedLimitForward = 30 TileId=1110201441 RtgSegIdx=97
Length= 66 SpeedLimitForward = 30 TileId=1110201441 RtgSegIdx=100
120 49.621901559024735 6.117406342991555 145.61966 true Length= 66 SpeedLimitForward = 30 TileId=1110201441 RtgSegIdx=100
Length= 12 SpeedLimitForward = 30 TileId=1110201441 RtgSegIdx=104
Length= 20 SpeedLimitForward = 30 TileId=1110201441 RtgSegIdx=106
Length= 15 SpeedLimitForward = 30 TileId=1110201441 RtgSegIdx=110
Length= 74 SpeedLimitForward = 30 TileId=1110201441 RtgSegIdx=116
140 49.6211597826387 6.11818964070401 145.49147 true Length= 74 SpeedLimitForward = 30 TileId=1110201441 RtgSegIdx=116
Length= 8 SpeedLimitForward = 30 TileId=1110201441 RtgSegIdx=119
Length= 62 SpeedLimitForward = 30 TileId=1110201441 RtgSegIdx=125
160 49.62054562227419 6.1189089797613185 142.69604 true Length= 62 SpeedLimitForward = 30 TileId=1110201441 RtgSegIdx=125
Length= 82 SpeedLimitForward = 30 TileId=1110201441 RtgSegIdx=131